createdAt,value
2018-08-14T00:00:06.885Z,0.00
2018-08-14T00:01:06.803Z,0.00
2018-08-14T00:02:06.732Z,0.00
2018-08-14T00:03:06.656Z,0.00
2018-08-14T00:04:06.583Z,0.00
2018-08-14T00:05:06.508Z,0.00
2018-08-14T00:06:06.434Z,0.00
2018-08-14T00:07:06.364Z,0.00
2018-08-14T00:08:06.290Z,0.00
2018-08-14T00:09:06.217Z,0.00
2018-08-14T00:10:06.143Z,0.00
2018-08-14T00:11:06.071Z,0.00
2018-08-14T00:12:05.998Z,0.00
2018-08-14T00:13:05.927Z,0.00
2018-08-14T00:14:05.853Z,0.00
2018-08-14T00:15:05.783Z,0.00
2018-08-14T00:16:05.706Z,0.00
2018-08-14T00:17:05.636Z,0.00
2018-08-14T00:18:05.563Z,0.00
2018-08-14T00:19:05.487Z,0.00
2018-08-14T00:20:05.414Z,0.00
2018-08-14T00:21:05.346Z,0.00
2018-08-14T00:22:05.269Z,0.00
2018-08-14T00:23:05.198Z,0.00
2018-08-14T00:24:05.125Z,0.00
2018-08-14T00:25:05.051Z,0.00
2018-08-14T00:26:04.976Z,0.00
2018-08-14T00:27:04.904Z,0.00
2018-08-14T00:28:04.831Z,0.00
2018-08-14T00:29:04.763Z,0.00
2018-08-14T00:30:04.690Z,0.00
2018-08-14T00:31:04.617Z,0.00
2018-08-14T00:32:04.540Z,0.00
2018-08-14T00:33:04.469Z,0.00
2018-08-14T00:34:04.393Z,0.00
2018-08-14T00:35:04.321Z,0.00
2018-08-14T00:36:04.251Z,0.00
2018-08-14T00:37:04.194Z,0.00
2018-08-14T00:38:04.148Z,0.00
2018-08-14T00:39:04.033Z,0.00
2018-08-14T00:40:03.977Z,0.00
2018-08-14T00:41:03.884Z,0.00
2018-08-14T00:42:03.810Z,0.00
2018-08-14T00:43:03.740Z,0.00
2018-08-14T00:44:03.663Z,0.00
2018-08-14T00:45:03.594Z,0.00
2018-08-14T00:46:03.520Z,0.00
2018-08-14T00:47:03.447Z,0.00
2018-08-14T00:48:03.372Z,0.00
2018-08-14T00:49:03.300Z,0.00
2018-08-14T00:50:03.227Z,0.00
2018-08-14T00:51:03.165Z,0.00
2018-08-14T00:52:03.082Z,0.00
2018-08-14T00:53:03.006Z,0.00
2018-08-14T00:54:02.934Z,0.00
2018-08-14T00:55:02.861Z,0.00
2018-08-14T00:56:02.791Z,0.00
2018-08-14T00:57:02.715Z,0.00
2018-08-14T00:58:02.643Z,0.00
2018-08-14T00:59:02.574Z,0.00
2018-08-14T01:00:02.496Z,0.00
2018-08-14T01:01:02.420Z,0.00
2018-08-14T01:02:02.364Z,0.00
2018-08-14T01:03:02.278Z,0.00
2018-08-14T01:04:02.204Z,0.00
2018-08-14T01:05:02.129Z,0.00
2018-08-14T01:06:02.056Z,0.00
2018-08-14T01:07:01.988Z,0.00
2018-08-14T01:08:01.917Z,0.00
2018-08-14T01:09:01.839Z,0.00
2018-08-14T01:10:01.782Z,0.00
2018-08-14T01:11:01.691Z,0.00
2018-08-14T01:12:01.620Z,0.00
2018-08-14T01:13:01.545Z,0.00
2018-08-14T01:14:01.472Z,0.00
2018-08-14T01:15:01.397Z,0.00
2018-08-14T01:16:01.324Z,0.00
2018-08-14T01:17:01.253Z,0.00
2018-08-14T01:18:01.178Z,0.00
2018-08-14T01:19:01.108Z,0.00
2018-08-14T01:20:01.034Z,0.00
2018-08-14T01:21:00.972Z,0.00
2018-08-14T01:22:00.889Z,0.00
2018-08-14T01:23:00.812Z,0.00
2018-08-14T01:24:00.739Z,0.00
2018-08-14T01:25:00.664Z,0.00
2018-08-14T01:26:00.597Z,0.00
2018-08-14T01:27:00.520Z,0.00
2018-08-14T01:28:00.445Z,0.00
2018-08-14T01:29:00.372Z,0.00
2018-08-14T01:30:00.301Z,0.00
2018-08-14T01:31:00.228Z,0.00
2018-08-14T01:32:00.153Z,0.00
2018-08-14T01:33:00.081Z,0.00
2018-08-14T01:34:00.012Z,0.00
2018-08-14T01:34:59.935Z,0.00
2018-08-14T01:35:59.859Z,0.00
2018-08-14T01:36:59.787Z,0.00
2018-08-14T01:37:59.715Z,0.00
2018-08-14T01:38:59.640Z,0.00
2018-08-14T01:39:59.577Z,0.00
2018-08-14T01:40:59.491Z,0.00
2018-08-14T01:41:59.421Z,0.00
2018-08-14T01:42:59.347Z,0.00
2018-08-14T01:43:59.271Z,0.00
2018-08-14T01:44:59.201Z,0.00
2018-08-14T01:45:59.131Z,0.00
2018-08-14T01:46:59.054Z,0.00
2018-08-14T01:47:58.979Z,0.00
2018-08-14T01:48:58.906Z,0.00
2018-08-14T01:49:58.835Z,0.00
2018-08-14T01:50:58.758Z,0.00
2018-08-14T01:51:58.683Z,0.00
2018-08-14T01:52:58.611Z,0.00
2018-08-14T01:53:58.541Z,0.00
2018-08-14T01:54:58.466Z,0.00
2018-08-14T01:55:58.390Z,0.00
2018-08-14T01:56:58.321Z,0.00
2018-08-14T01:57:58.246Z,0.00
2018-08-14T01:58:58.172Z,0.00
2018-08-14T01:59:58.098Z,0.00
2018-08-14T02:00:58.026Z,0.00
2018-08-14T02:01:57.992Z,0.00
2018-08-14T02:02:57.880Z,0.00
2018-08-14T02:03:57.804Z,0.00
2018-08-14T02:04:57.734Z,0.00
2018-08-14T02:05:57.658Z,0.00
2018-08-14T02:06:57.585Z,0.00
2018-08-14T02:07:57.512Z,0.00
2018-08-14T02:08:57.439Z,0.00
2018-08-14T02:09:57.367Z,0.00
2018-08-14T02:10:57.295Z,0.00
2018-08-14T02:11:57.221Z,0.00
2018-08-14T02:12:57.142Z,0.00
2018-08-14T02:13:57.070Z,0.00
2018-08-14T02:14:57.002Z,0.00
2018-08-14T02:15:56.923Z,0.00
2018-08-14T02:16:56.857Z,0.00
2018-08-14T02:17:56.777Z,0.00
2018-08-14T02:18:56.706Z,0.00
2018-08-14T02:19:56.633Z,0.00
2018-08-14T02:20:56.575Z,0.00
2018-08-14T02:21:56.482Z,0.00
2018-08-14T02:22:56.408Z,0.00
2018-08-14T02:23:56.335Z,0.00
2018-08-14T02:24:56.263Z,0.00
2018-08-14T02:25:56.197Z,0.00
2018-08-14T02:26:56.116Z,0.00
2018-08-14T02:27:56.041Z,0.00
2018-08-14T02:28:55.974Z,0.00
2018-08-14T02:29:55.899Z,0.00
2018-08-14T02:30:55.824Z,0.00
2018-08-14T02:31:55.750Z,0.00
2018-08-14T02:32:55.677Z,0.00
2018-08-14T02:33:55.604Z,0.00
2018-08-14T02:34:55.528Z,0.00
2018-08-14T02:35:55.453Z,0.00
2018-08-14T02:36:55.382Z,0.00
2018-08-14T02:37:55.308Z,0.00
2018-08-14T02:38:55.234Z,0.00
2018-08-14T02:39:55.165Z,0.00
2018-08-14T02:40:55.091Z,0.00
2018-08-14T02:41:55.012Z,0.00
2018-08-14T02:42:54.951Z,0.00
2018-08-14T02:43:54.869Z,0.00
2018-08-14T02:44:54.795Z,0.00
2018-08-14T02:45:54.721Z,0.00
2018-08-14T02:46:54.646Z,0.00
2018-08-14T02:47:54.577Z,0.00
2018-08-14T02:48:54.500Z,0.00
2018-08-14T02:49:54.426Z,0.00
2018-08-14T02:50:54.353Z,0.00
2018-08-14T02:51:54.285Z,0.00
2018-08-14T02:52:54.203Z,0.00
2018-08-14T02:53:54.143Z,0.00
2018-08-14T02:54:54.057Z,0.00
2018-08-14T02:55:53.984Z,0.00
2018-08-14T02:56:53.912Z,0.00
2018-08-14T02:57:53.836Z,0.00
2018-08-14T02:58:53.770Z,0.00
2018-08-14T02:59:53.691Z,0.00
2018-08-14T03:00:53.618Z,0.00
2018-08-14T03:01:53.549Z,0.00
2018-08-14T03:02:53.471Z,0.00
2018-08-14T03:03:53.396Z,0.00
2018-08-14T03:04:53.327Z,0.00
2018-08-14T03:05:53.249Z,0.00
2018-08-14T03:06:53.183Z,0.00
2018-08-14T03:07:53.103Z,0.00
2018-08-14T03:08:53.029Z,0.00
2018-08-14T03:09:52.955Z,0.00
2018-08-14T03:10:52.880Z,0.00
2018-08-14T03:11:52.806Z,0.00
2018-08-14T03:12:52.733Z,0.00
2018-08-14T03:13:52.665Z,0.00
2018-08-14T03:14:52.585Z,0.00
2018-08-14T03:15:52.511Z,0.00
2018-08-14T03:16:52.437Z,0.00
2018-08-14T03:17:52.367Z,0.00
2018-08-14T03:18:52.291Z,0.00
2018-08-14T03:19:52.224Z,0.00
2018-08-14T03:20:52.155Z,0.00
2018-08-14T03:21:52.069Z,0.00
2018-08-14T03:22:52.002Z,0.00
2018-08-14T03:23:51.921Z,0.00
2018-08-14T03:24:51.847Z,0.00
2018-08-14T03:25:51.777Z,0.00
2018-08-14T03:26:51.700Z,0.00
2018-08-14T03:27:51.628Z,0.00
2018-08-14T03:28:51.551Z,0.00
2018-08-14T03:29:51.481Z,0.00
2018-08-14T03:30:51.415Z,0.00
2018-08-14T03:31:51.334Z,0.00
2018-08-14T03:32:51.260Z,0.00
2018-08-14T03:33:51.190Z,0.00
2018-08-14T03:34:51.110Z,0.00
2018-08-14T03:35:51.042Z,0.00
2018-08-14T03:36:58.616Z,0.00
2018-08-14T03:38:55.323Z,4.00
2018-08-14T03:39:55.206Z,0.00
2018-08-14T03:41:59.553Z,4.00
2018-08-14T03:42:59.426Z,4.00
2018-08-14T03:45:03.751Z,8.00
2018-08-14T03:46:03.652Z,8.00
2018-08-14T03:47:57.947Z,12.00
2018-08-14T03:48:57.825Z,12.00
2018-08-14T03:51:02.279Z,16.00
2018-08-14T03:52:02.154Z,16.00
2018-08-14T03:54:06.467Z,16.00
2018-08-14T03:55:06.385Z,20.00
2018-08-14T03:57:10.746Z,20.00
2018-08-14T03:58:10.631Z,24.00
2018-08-14T03:59:10.553Z,24.00
2018-08-14T04:00:10.477Z,28.00
2018-08-14T04:01:10.402Z,36.00
2018-08-14T04:02:10.327Z,32.00
2018-08-14T04:03:10.255Z,32.00
2018-08-14T04:04:10.180Z,32.00
2018-08-14T04:05:10.107Z,36.00
2018-08-14T04:06:10.175Z,36.00
2018-08-14T04:07:09.964Z,44.00
2018-08-14T04:08:09.886Z,52.00
2018-08-14T04:09:09.810Z,60.00
2018-08-14T04:10:09.736Z,64.00
2018-08-14T04:11:09.662Z,76.00
2018-08-14T04:12:09.590Z,80.00
2018-08-14T04:13:09.513Z,92.00
2018-08-14T04:14:09.438Z,88.00
2018-08-14T04:15:09.365Z,96.00
2018-08-14T04:16:09.290Z,124.00
2018-08-14T04:17:09.219Z,148.00
2018-08-14T04:18:09.144Z,152.00
2018-08-14T04:19:09.072Z,152.00
2018-08-14T04:20:08.997Z,140.00
2018-08-14T04:21:08.922Z,132.00
2018-08-14T04:22:08.848Z,144.00
2018-08-14T04:23:08.775Z,172.00
2018-08-14T04:24:08.698Z,208.00
2018-08-14T04:25:08.627Z,204.00
2018-08-14T04:26:08.548Z,224.00
2018-08-14T04:27:08.480Z,256.00
2018-08-14T04:28:08.402Z,292.00
2018-08-14T04:29:08.328Z,300.00
2018-08-14T04:30:08.256Z,328.00
2018-08-14T04:31:08.177Z,348.00
2018-08-14T04:32:08.110Z,368.00
2018-08-14T04:33:08.033Z,380.00
2018-08-14T04:34:07.960Z,376.00
2018-08-14T04:35:07.885Z,364.00
2018-08-14T04:36:07.817Z,360.00
2018-08-14T04:37:07.739Z,380.00
2018-08-14T04:38:07.658Z,404.00
2018-08-14T04:39:07.584Z,428.00
2018-08-14T04:40:07.514Z,456.00
2018-08-14T04:41:07.437Z,420.00
2018-08-14T04:42:07.361Z,432.00
2018-08-14T04:43:07.287Z,464.00
2018-08-14T04:44:07.213Z,504.00
2018-08-14T04:45:07.138Z,552.00
2018-08-14T04:46:07.065Z,580.00
2018-08-14T04:47:06.988Z,620.00
2018-08-14T04:48:06.917Z,664.00
2018-08-14T04:49:06.842Z,696.00
2018-08-14T04:50:06.766Z,724.00
2018-08-14T04:51:06.691Z,756.00
2018-08-14T04:52:06.619Z,780.00
2018-08-14T04:53:06.543Z,816.00
2018-08-14T04:54:06.470Z,860.00
2018-08-14T04:55:06.396Z,900.00
2018-08-14T04:56:06.322Z,928.00
2018-08-14T04:57:06.247Z,952.00
2018-08-14T04:58:06.176Z,984.00
2018-08-14T04:59:06.100Z,1008.00
2018-08-14T05:00:06.024Z,1064.00
2018-08-14T05:01:05.950Z,1096.00
2018-08-14T05:02:05.877Z,1136.00
2018-08-14T05:03:05.804Z,1120.00
2018-08-14T05:04:05.729Z,1084.00
2018-08-14T05:05:05.654Z,1068.00
2018-08-14T05:06:05.583Z,1068.00
2018-08-14T05:07:05.503Z,1072.00
2018-08-14T05:08:05.440Z,1088.00
2018-08-14T05:09:05.452Z,1112.00
2018-08-14T05:10:05.280Z,1168.00
2018-08-14T05:11:05.211Z,1236.00
2018-08-14T05:12:05.134Z,1280.00
2018-08-14T05:13:05.072Z,1312.00
2018-08-14T05:14:04.987Z,1364.00
2018-08-14T05:15:04.915Z,1428.00
2018-08-14T05:16:04.849Z,1496.00
2018-08-14T05:17:04.765Z,1556.00
2018-08-14T05:18:04.687Z,1596.00
2018-08-14T05:19:04.618Z,1656.00
2018-08-14T05:20:04.541Z,1708.00
2018-08-14T05:21:04.466Z,1760.00
2018-08-14T05:22:04.395Z,1796.00
2018-08-14T05:23:04.364Z,1840.00
2018-08-14T05:24:04.246Z,1876.00
2018-08-14T05:25:04.174Z,1884.00
2018-08-14T05:26:04.097Z,1912.00
2018-08-14T05:27:04.027Z,1920.00
2018-08-14T05:28:03.949Z,1924.00
2018-08-14T05:29:03.872Z,1928.00
2018-08-14T05:30:03.799Z,1952.00
2018-08-14T05:31:03.725Z,2004.00
2018-08-14T05:32:03.652Z,2044.00
2018-08-14T05:33:03.586Z,2116.00
2018-08-14T05:34:03.503Z,2208.00
2018-08-14T05:35:03.433Z,2236.00
2018-08-14T05:36:03.362Z,2244.00
2018-08-14T05:37:03.284Z,2336.00
2018-08-14T05:38:03.208Z,2380.00
2018-08-14T05:39:03.133Z,2400.00
2018-08-14T05:40:03.060Z,2396.00
2018-08-14T05:41:02.989Z,2368.00
2018-08-14T05:42:02.914Z,2284.00
2018-08-14T05:43:02.838Z,2136.00
2018-08-14T05:44:02.777Z,2072.00
2018-08-14T05:45:02.693Z,2180.00
2018-08-14T05:46:02.618Z,2168.00
2018-08-14T05:47:02.543Z,2112.00
2018-08-14T05:48:02.467Z,2168.00
2018-08-14T05:49:02.400Z,2104.00
2018-08-14T05:50:02.320Z,2188.00
2018-08-14T05:51:02.249Z,2044.00
2018-08-14T05:52:02.178Z,1932.00
2018-08-14T05:53:02.138Z,1884.00
2018-08-14T05:54:02.025Z,1860.00
2018-08-14T05:55:01.958Z,1824.00
2018-08-14T05:56:01.876Z,1816.00
2018-08-14T05:57:01.805Z,1824.00
2018-08-14T05:58:01.731Z,1848.00
2018-08-14T05:59:01.663Z,1876.00
2018-08-14T06:00:01.585Z,1892.00
2018-08-14T06:01:01.515Z,1928.00
2018-08-14T06:02:01.435Z,1972.00
2018-08-14T06:03:01.362Z,1992.00
2018-08-14T06:04:01.289Z,2020.00
2018-08-14T06:05:01.213Z,2040.00
2018-08-14T06:06:01.140Z,2064.00
2018-08-14T06:07:01.066Z,2112.00
2018-08-14T06:08:00.994Z,2132.00
2018-08-14T06:09:00.922Z,2184.00
2018-08-14T06:10:00.844Z,2264.00
2018-08-14T06:11:00.771Z,2500.00
2018-08-14T06:12:00.697Z,2456.00
2018-08-14T06:13:00.658Z,2496.00
2018-08-14T06:14:00.550Z,2540.00
2018-08-14T06:15:00.476Z,2640.00
2018-08-14T06:16:00.404Z,2640.00
2018-08-14T06:17:00.337Z,2692.00
2018-08-14T06:18:00.259Z,2764.00
2018-08-14T06:19:00.185Z,2896.00
2018-08-14T06:20:00.117Z,2884.00
2018-08-14T06:21:00.032Z,2864.00
2018-08-14T06:21:59.961Z,2756.00
2018-08-14T06:22:59.893Z,2796.00
2018-08-14T06:23:59.816Z,2908.00
2018-08-14T06:24:59.737Z,2904.00
2018-08-14T06:25:59.666Z,2868.00
2018-08-14T06:26:59.592Z,2832.00
2018-08-14T06:27:59.518Z,2848.00
2018-08-14T06:28:59.443Z,2860.00
2018-08-14T06:29:59.371Z,2840.00
2018-08-14T06:30:59.299Z,2788.00
2018-08-14T06:31:59.232Z,2736.00
2018-08-14T06:32:59.151Z,2696.00
2018-08-14T06:33:59.078Z,2632.00
2018-08-14T06:34:59.001Z,2464.00
2018-08-14T06:35:58.926Z,2508.00
2018-08-14T06:36:58.864Z,2580.00
2018-08-14T06:37:58.782Z,2588.00
2018-08-14T06:38:58.707Z,2632.00
2018-08-14T06:39:58.634Z,2612.00
2018-08-14T06:40:58.561Z,2564.00
2018-08-14T06:41:58.486Z,2484.00
2018-08-14T06:42:58.409Z,2436.00
2018-08-14T06:43:58.349Z,2476.00
2018-08-14T06:44:58.265Z,2468.00
2018-08-14T06:45:58.191Z,2392.00
2018-08-14T06:46:58.121Z,2356.00
2018-08-14T06:47:58.047Z,2440.00
2018-08-14T06:48:58.015Z,2508.00
2018-08-14T06:49:57.897Z,2568.00
2018-08-14T06:50:57.825Z,2624.00
2018-08-14T06:51:57.749Z,2628.00
2018-08-14T06:52:57.684Z,2664.00
2018-08-14T06:53:57.682Z,2752.00
2018-08-14T06:54:57.528Z,2840.00
2018-08-14T06:55:57.456Z,2736.00
2018-08-14T06:56:57.383Z,2436.00
2018-08-14T06:57:57.307Z,3128.00
2018-08-14T06:58:57.235Z,3372.00
2018-08-14T06:59:57.160Z,2796.00
2018-08-14T07:00:57.112Z,2520.00
2018-08-14T07:01:57.015Z,3048.00
2018-08-14T07:02:56.939Z,2984.00
2018-08-14T07:03:56.865Z,3144.00
2018-08-14T07:04:56.794Z,3288.00
2018-08-14T07:05:56.717Z,3232.00
2018-08-14T07:06:56.646Z,3580.00
2018-08-14T07:07:56.574Z,3772.00
2018-08-14T07:08:56.499Z,4172.00
2018-08-14T07:09:56.428Z,3536.00
2018-08-14T07:10:56.360Z,3584.00
2018-08-14T07:11:56.340Z,2988.00
2018-08-14T07:12:56.208Z,3544.00
2018-08-14T07:13:56.131Z,3968.00
2018-08-14T07:14:56.063Z,4088.00
2018-08-14T07:15:55.985Z,4244.00
2018-08-14T07:16:55.911Z,3984.00
2018-08-14T07:17:55.837Z,4412.00
2018-08-14T07:18:55.766Z,4296.00
2018-08-14T07:19:55.691Z,4996.00
2018-08-14T07:20:55.618Z,4612.00
2018-08-14T07:21:55.544Z,4656.00
2018-08-14T07:22:55.474Z,4420.00
2018-08-14T07:23:55.401Z,4108.00
2018-08-14T07:24:55.326Z,4256.00
2018-08-14T07:25:55.250Z,4088.00
2018-08-14T07:26:55.176Z,3520.00
2018-08-14T07:27:55.102Z,3836.00
2018-08-14T07:28:55.056Z,3596.00
2018-08-14T07:29:54.961Z,3804.00
2018-08-14T07:30:54.885Z,3576.00
2018-08-14T07:31:54.825Z,3308.00
2018-08-14T07:32:54.737Z,2964.00
2018-08-14T07:33:54.669Z,2956.00
2018-08-14T07:34:54.592Z,2988.00
2018-08-14T07:35:54.519Z,2348.00
2018-08-14T07:36:54.451Z,2672.00
2018-08-14T07:37:54.375Z,2216.00
2018-08-14T07:38:54.306Z,2440.00
2018-08-14T07:39:54.228Z,2984.00
2018-08-14T07:40:54.154Z,3320.00
2018-08-14T07:41:54.081Z,3588.00
2018-08-14T07:42:54.011Z,4156.00
2018-08-14T07:43:53.940Z,4772.00
2018-08-14T07:44:53.862Z,4812.00
2018-08-14T07:45:53.789Z,4900.00
2018-08-14T07:46:53.724Z,5128.00
2018-08-14T07:47:53.644Z,4904.00
2018-08-14T07:48:53.572Z,4396.00
2018-08-14T07:49:53.496Z,4776.00
2018-08-14T07:50:53.425Z,4216.00
2018-08-14T07:51:53.354Z,4644.00
2018-08-14T07:52:53.279Z,4564.00
2018-08-14T07:53:53.205Z,5076.00
2018-08-14T07:54:53.133Z,4756.00
2018-08-14T07:55:53.061Z,4988.00
2018-08-14T07:56:52.986Z,4624.00
2018-08-14T07:57:52.971Z,4496.00
2018-08-14T07:58:52.840Z,3808.00
2018-08-14T07:59:52.771Z,4444.00
2018-08-14T08:00:52.697Z,4460.00
2018-08-14T08:01:52.622Z,4520.00
2018-08-14T08:02:52.548Z,4348.00
2018-08-14T08:03:52.477Z,4784.00
2018-08-14T08:04:52.404Z,4580.00
2018-08-14T08:05:52.332Z,4464.00
2018-08-14T08:06:52.259Z,4336.00
2018-08-14T08:07:52.188Z,4072.00
2018-08-14T08:08:52.114Z,4048.00
2018-08-14T08:09:52.045Z,4056.00
2018-08-14T08:10:51.972Z,4512.00
2018-08-14T08:11:51.893Z,4000.00
2018-08-14T08:12:51.821Z,3888.00
2018-08-14T08:13:51.753Z,3404.00
2018-08-14T08:14:51.677Z,3512.00
2018-08-14T08:15:51.603Z,3192.00
2018-08-14T08:16:51.530Z,3468.00
2018-08-14T08:17:51.459Z,2856.00
2018-08-14T08:18:51.388Z,3216.00
2018-08-14T08:19:51.323Z,2820.00
2018-08-14T08:20:51.244Z,3044.00
2018-08-14T08:21:51.182Z,3892.00
2018-08-14T08:22:51.096Z,2860.00
2018-08-14T08:23:51.024Z,2956.00
2018-08-14T08:24:50.952Z,3748.00
2018-08-14T08:25:50.879Z,5044.00
2018-08-14T08:26:50.870Z,4756.00
2018-08-14T08:27:50.737Z,4300.00
2018-08-14T08:28:50.665Z,4148.00
2018-08-14T08:29:50.587Z,3252.00
2018-08-14T08:30:50.516Z,3088.00
2018-08-14T08:31:50.445Z,3236.00
2018-08-14T08:32:50.373Z,3432.00
2018-08-14T08:33:50.299Z,3596.00
2018-08-14T08:34:50.227Z,3616.00
2018-08-14T08:35:50.156Z,3736.00
2018-08-14T08:36:50.081Z,4120.00
2018-08-14T08:37:50.010Z,4196.00
2018-08-14T08:38:49.936Z,4180.00
2018-08-14T08:39:49.864Z,3496.00
2018-08-14T08:40:49.794Z,3876.00
2018-08-14T08:41:49.763Z,2916.00
2018-08-14T08:42:49.647Z,3144.00
2018-08-14T08:43:49.575Z,3476.00
2018-08-14T08:44:49.503Z,4240.00
2018-08-14T08:45:49.471Z,4592.00
2018-08-14T08:46:49.363Z,4712.00
2018-08-14T08:47:49.284Z,3760.00
2018-08-14T08:48:49.210Z,3736.00
2018-08-14T08:49:49.139Z,3228.00
2018-08-14T08:50:49.066Z,3680.00
2018-08-14T08:51:48.995Z,4616.00
2018-08-14T08:52:49.023Z,4284.00
2018-08-14T08:53:48.853Z,3712.00
2018-08-14T08:54:48.778Z,3692.00
2018-08-14T08:55:48.742Z,3624.00
2018-08-14T08:56:48.688Z,4164.00
2018-08-14T08:57:48.570Z,3984.00
2018-08-14T08:58:48.532Z,4612.00
2018-08-14T08:59:48.424Z,4716.00
2018-08-14T09:00:48.346Z,4944.00
2018-08-14T09:01:48.319Z,5244.00
2018-08-14T09:02:48.202Z,5892.00
2018-08-14T09:03:48.237Z,6404.00
2018-08-14T09:04:48.058Z,5344.00
2018-08-14T09:05:47.981Z,4768.00
2018-08-14T09:06:47.909Z,4964.00
2018-08-14T09:07:47.845Z,5168.00
2018-08-14T09:08:47.766Z,5324.00
2018-08-14T09:09:47.690Z,4120.00
2018-08-14T09:10:47.622Z,4744.00
2018-08-14T09:11:47.548Z,4432.00
2018-08-14T09:12:47.477Z,5464.00
2018-08-14T09:13:47.408Z,4888.00
2018-08-14T09:14:47.330Z,4696.00
2018-08-14T09:15:47.265Z,4656.00
2018-08-14T09:16:47.188Z,5312.00
2018-08-14T09:17:47.114Z,5428.00
2018-08-14T09:18:47.043Z,5260.00
2018-08-14T09:19:46.972Z,5248.00
2018-08-14T09:20:46.903Z,4936.00
2018-08-14T09:21:46.827Z,4912.00
2018-08-14T09:22:46.757Z,5288.00
2018-08-14T09:23:46.683Z,4276.00
2018-08-14T09:24:46.614Z,3820.00
2018-08-14T09:25:46.542Z,4292.00
2018-08-14T09:26:46.468Z,4188.00
2018-08-14T09:27:46.395Z,4856.00
2018-08-14T09:28:46.328Z,5412.00
2018-08-14T09:29:46.265Z,5720.00
2018-08-14T09:30:46.180Z,5792.00
2018-08-14T09:31:46.107Z,5976.00
2018-08-14T09:32:46.040Z,6164.00
2018-08-14T09:33:45.962Z,6388.00
2018-08-14T09:34:45.894Z,6104.00
2018-08-14T09:35:45.819Z,6464.00
2018-08-14T09:36:45.748Z,5460.00
2018-08-14T09:37:47.170Z,5896.00
2018-08-14T09:38:52.777Z,5676.00
2018-08-14T09:40:49.484Z,4268.00
2018-08-14T09:41:49.362Z,4352.00
2018-08-14T09:43:53.243Z,4892.00
2018-08-14T09:44:53.120Z,4920.00
2018-08-14T09:46:57.014Z,5440.00
2018-08-14T09:47:56.873Z,6096.00
2018-08-14T09:50:00.701Z,8180.00
2018-08-14T09:51:00.627Z,8244.00
2018-08-14T09:52:00.556Z,8080.00
2018-08-14T09:53:00.490Z,7740.00
2018-08-14T09:54:00.495Z,6840.00
2018-08-14T09:55:00.344Z,6220.00
2018-08-14T09:56:00.270Z,6036.00
2018-08-14T09:57:00.220Z,6512.00
2018-08-14T09:58:00.141Z,5644.00
2018-08-14T09:59:00.056Z,5548.00
2018-08-14T09:59:59.985Z,5116.00
2018-08-14T10:00:59.911Z,4356.00
2018-08-14T10:01:59.841Z,3932.00
2018-08-14T10:02:59.775Z,3628.00
2018-08-14T10:03:59.699Z,3440.00
2018-08-14T10:04:59.628Z,3388.00
2018-08-14T10:05:59.554Z,3248.00
2018-08-14T10:06:59.493Z,3132.00
2018-08-14T10:07:59.415Z,3040.00
2018-08-14T10:08:59.346Z,3640.00
2018-08-14T10:09:59.270Z,4372.00
2018-08-14T10:10:59.197Z,5068.00
2018-08-14T10:11:59.127Z,5896.00
2018-08-14T10:12:59.057Z,6684.00
2018-08-14T10:13:58.986Z,6536.00
2018-08-14T10:14:58.915Z,7268.00
2018-08-14T10:15:58.843Z,7680.00
2018-08-14T10:16:58.772Z,7464.00
2018-08-14T10:17:58.696Z,6944.00
2018-08-14T10:18:58.629Z,6584.00
2018-08-14T10:19:58.611Z,6388.00
2018-08-14T10:20:58.491Z,5976.00
2018-08-14T10:21:58.411Z,5800.00
2018-08-14T10:22:58.341Z,5508.00
2018-08-14T10:23:58.272Z,5180.00
2018-08-14T10:24:58.203Z,5152.00
2018-08-14T10:25:58.127Z,5200.00
2018-08-14T10:26:58.056Z,5132.00
2018-08-14T10:27:57.995Z,5196.00
2018-08-14T10:28:57.962Z,5376.00
2018-08-14T10:29:57.847Z,5616.00
2018-08-14T10:30:57.771Z,5640.00
2018-08-14T10:31:57.699Z,5744.00
2018-08-14T10:32:57.626Z,5880.00
2018-08-14T10:33:57.554Z,5992.00
2018-08-14T10:34:57.484Z,6144.00
2018-08-14T10:35:57.417Z,6224.00
2018-08-14T10:36:57.340Z,6256.00
2018-08-14T10:37:57.269Z,6248.00
2018-08-14T10:38:57.202Z,6108.00
2018-08-14T10:39:57.184Z,5988.00
2018-08-14T10:40:57.056Z,5932.00
2018-08-14T10:41:56.990Z,5972.00
2018-08-14T10:42:56.918Z,6040.00
2018-08-14T10:43:56.842Z,6084.00
2018-08-14T10:44:56.772Z,6136.00
2018-08-14T10:45:56.736Z,6376.00
2018-08-14T10:46:56.632Z,6464.00
2018-08-14T10:47:56.558Z,6688.00
2018-08-14T10:48:56.487Z,7276.00
2018-08-14T10:49:56.416Z,7248.00
2018-08-14T10:50:56.349Z,5824.00
2018-08-14T10:51:56.276Z,6892.00
2018-08-14T10:52:56.233Z,7036.00
2018-08-14T10:53:56.136Z,7088.00
2018-08-14T10:54:56.063Z,7264.00
2018-08-14T10:55:55.993Z,7636.00
2018-08-14T10:56:55.918Z,8332.00
2018-08-14T10:57:55.882Z,8908.00
2018-08-14T10:58:55.778Z,9544.00
2018-08-14T10:59:55.707Z,10296.00
2018-08-14T11:00:55.652Z,10788.00
2018-08-14T11:01:55.564Z,11228.00
2018-08-14T11:02:55.497Z,11136.00
2018-08-14T11:03:55.425Z,11180.00
2018-08-14T11:04:55.432Z,9584.00
2018-08-14T11:05:55.283Z,8404.00
2018-08-14T11:06:55.214Z,8192.00
2018-08-14T11:07:55.146Z,7184.00
2018-08-14T11:08:55.072Z,7796.00
2018-08-14T11:09:55.001Z,7572.00
2018-08-14T11:10:54.934Z,7728.00
2018-08-14T11:11:54.867Z,8180.00
2018-08-14T11:12:54.791Z,8320.00
2018-08-14T11:13:54.729Z,8532.00
2018-08-14T11:14:54.653Z,7640.00
2018-08-14T11:15:54.582Z,6264.00
2018-08-14T11:16:54.510Z,6264.00
2018-08-14T11:17:54.441Z,6272.00
2018-08-14T11:18:54.368Z,6968.00
2018-08-14T11:19:54.309Z,6412.00
2018-08-14T11:20:54.284Z,6316.00
2018-08-14T11:21:54.161Z,3664.00
2018-08-14T11:22:54.089Z,3040.00
2018-08-14T11:23:54.018Z,2964.00
2018-08-14T11:24:54.067Z,3124.00
2018-08-14T11:25:53.877Z,3120.00
2018-08-14T11:26:53.814Z,3216.00
2018-08-14T11:27:53.739Z,3484.00
2018-08-14T11:28:53.666Z,3712.00
2018-08-14T11:29:53.598Z,4028.00
2018-08-14T11:30:53.526Z,4192.00
2018-08-14T11:31:53.472Z,4756.00
2018-08-14T11:32:53.407Z,5832.00
2018-08-14T11:33:53.325Z,6448.00
2018-08-14T11:34:53.245Z,7808.00
2018-08-14T11:35:53.172Z,8468.00
2018-08-14T11:36:53.100Z,9712.00
2018-08-14T11:37:53.032Z,10160.00
2018-08-14T11:38:52.960Z,10452.00
2018-08-14T11:39:52.988Z,10448.00
2018-08-14T11:40:52.817Z,13076.00
2018-08-14T11:41:52.748Z,13104.00
2018-08-14T11:42:52.680Z,11360.00
2018-08-14T11:43:52.609Z,10276.00
2018-08-14T11:44:52.538Z,8444.00
2018-08-14T11:45:52.470Z,7128.00
2018-08-14T11:46:52.397Z,7320.00
2018-08-14T11:47:52.325Z,9040.00
2018-08-14T11:48:52.258Z,10584.00
2018-08-14T11:49:52.186Z,12780.00
2018-08-14T11:50:52.170Z,11980.00
2018-08-14T11:51:52.044Z,12760.00
2018-08-14T11:52:51.977Z,13704.00
2018-08-14T11:53:51.905Z,13004.00
2018-08-14T11:54:51.834Z,10964.00
2018-08-14T11:55:51.765Z,10784.00
2018-08-14T11:56:51.702Z,12768.00
2018-08-14T11:57:51.626Z,12380.00
2018-08-14T11:58:51.557Z,12516.00
2018-08-14T11:59:51.485Z,10404.00
2018-08-14T12:00:51.416Z,11276.00
2018-08-14T12:01:51.348Z,11280.00
2018-08-14T12:02:51.278Z,11728.00
2018-08-14T12:03:51.206Z,11492.00
2018-08-14T12:04:51.142Z,14820.00
2018-08-14T12:05:51.067Z,14300.00
2018-08-14T12:06:50.999Z,15904.00
2018-08-14T12:07:50.926Z,14268.00
2018-08-14T12:08:50.861Z,15808.00
2018-08-14T12:09:50.790Z,13044.00
2018-08-14T12:10:50.767Z,11284.00
2018-08-14T12:11:50.652Z,10148.00
2018-08-14T12:12:50.611Z,9272.00
2018-08-14T12:13:50.516Z,8340.00
2018-08-14T12:14:50.447Z,7808.00
2018-08-14T12:15:50.376Z,7156.00
2018-08-14T12:16:50.307Z,6496.00
2018-08-14T12:17:50.246Z,6680.00
2018-08-14T12:18:50.169Z,7244.00
2018-08-14T12:19:50.101Z,8320.00
2018-08-14T12:20:50.032Z,10716.00
2018-08-14T12:21:49.964Z,13220.00
2018-08-14T12:22:49.892Z,82752.00
2018-08-14T12:23:49.825Z,92160.00
2018-08-14T12:24:49.754Z,14100.00
2018-08-14T12:25:49.690Z,71424.00
2018-08-14T12:26:49.629Z,12548.00
2018-08-14T12:27:49.552Z,10684.00
2018-08-14T12:28:49.483Z,10560.00
2018-08-14T12:29:49.418Z,7452.00
2018-08-14T12:30:49.345Z,6016.00
2018-08-14T12:31:49.281Z,5024.00
2018-08-14T12:32:49.221Z,4528.00
2018-08-14T12:33:49.141Z,3996.00
2018-08-14T12:34:49.133Z,3660.00
2018-08-14T12:35:49.007Z,3540.00
2018-08-14T12:36:48.938Z,3628.00
2018-08-14T12:37:48.870Z,3748.00